createdAt,value
2024-02-02T00:00:45.060Z,99.90
2024-02-02T00:03:12.861Z,99.90
2024-02-02T00:05:40.244Z,99.90
2024-02-02T00:08:07.852Z,99.90
2024-02-02T00:10:35.396Z,99.90
2024-02-02T00:13:02.788Z,99.90
2024-02-02T00:15:30.323Z,99.90
2024-02-02T00:17:57.952Z,99.90
2024-02-02T00:20:25.335Z,99.90
2024-02-02T00:22:55.541Z,99.90
2024-02-02T00:25:23.836Z,99.90
2024-02-02T00:27:51.137Z,99.90
2024-02-02T00:30:19.199Z,99.90
2024-02-02T00:32:46.863Z,99.90
2024-02-02T00:35:16.994Z,99.90
2024-02-02T00:37:45.499Z,99.90
2024-02-02T00:40:12.947Z,99.90
2024-02-02T00:42:40.578Z,99.90
2024-02-02T00:45:08.525Z,99.90
2024-02-02T00:47:35.888Z,99.90
2024-02-02T00:50:05.444Z,99.90
2024-02-02T00:52:33.819Z,99.90
2024-02-02T00:55:01.850Z,99.90
2024-02-02T00:57:30.890Z,99.90
2024-02-02T00:59:58.501Z,99.90
2024-02-02T01:02:25.995Z,99.90
2024-02-02T01:04:53.389Z,99.90
2024-02-02T01:07:21.010Z,99.90
2024-02-02T01:09:48.423Z,99.90
2024-02-02T01:12:16.239Z,99.90
2024-02-02T01:14:43.935Z,99.90
2024-02-02T01:17:11.358Z,99.90
2024-02-02T01:19:38.946Z,99.90
2024-02-02T01:22:07.237Z,99.90
2024-02-02T01:24:34.730Z,99.90
2024-02-02T01:27:02.090Z,99.90
2024-02-02T01:29:30.699Z,99.90
2024-02-02T01:31:58.102Z,99.90
2024-02-02T01:34:25.599Z,99.90
2024-02-02T01:36:53.316Z,99.90
2024-02-02T01:39:20.735Z,99.90
2024-02-02T01:41:48.158Z,99.90
2024-02-02T01:44:15.882Z,99.90
2024-02-02T01:46:47.948Z,99.90
2024-02-02T01:49:15.552Z,99.90
2024-02-02T01:51:44.374Z,99.90
2024-02-02T01:54:11.944Z,99.90
2024-02-02T01:56:39.814Z,99.90
2024-02-02T01:59:09.179Z,99.90
2024-02-02T02:01:36.796Z,99.90
2024-02-02T02:04:04.957Z,99.90
2024-02-02T02:06:32.578Z,99.90
2024-02-02T02:09:01.473Z,99.90
2024-02-02T02:11:29.096Z,99.90
2024-02-02T02:13:56.684Z,99.90
2024-02-02T02:16:23.996Z,99.90
2024-02-02T02:18:56.247Z,99.90
2024-02-02T02:21:30.551Z,99.90
2024-02-02T02:23:58.284Z,99.90
2024-02-02T02:26:27.249Z,99.90
2024-02-02T02:28:54.638Z,99.90
2024-02-02T02:31:21.958Z,99.90
2024-02-02T02:33:49.469Z,99.90
2024-02-02T02:36:17.208Z,99.90
2024-02-02T02:38:45.254Z,99.90
2024-02-02T02:41:12.874Z,99.90
2024-02-02T02:43:40.606Z,99.90
2024-02-02T02:46:08.890Z,99.90
2024-02-02T02:48:39.953Z,99.90
2024-02-02T02:51:07.367Z,99.90
2024-02-02T02:53:34.698Z,99.90
2024-02-02T02:56:02.250Z,99.90
2024-02-02T02:58:29.606Z,99.90
2024-02-02T03:00:57.108Z,99.90
2024-02-02T03:03:24.723Z,99.90
2024-02-02T03:05:52.238Z,99.90
2024-02-02T03:08:19.621Z,99.90
2024-02-02T03:10:47.172Z,99.90
2024-02-02T03:13:14.564Z,99.90
2024-02-02T03:15:42.898Z,99.90
2024-02-02T03:18:12.677Z,99.90
2024-02-02T03:20:40.027Z,99.90
2024-02-02T03:23:07.410Z,99.90
2024-02-02T03:25:34.845Z,99.90
2024-02-02T03:28:02.193Z,99.90
2024-02-02T03:30:32.065Z,99.90
2024-02-02T03:32:59.709Z,99.90
2024-02-02T03:35:27.973Z,99.90
2024-02-02T03:37:55.358Z,99.90
2024-02-02T03:40:22.785Z,99.90
2024-02-02T03:42:50.152Z,99.90
2024-02-02T03:45:17.490Z,99.90
2024-02-02T03:47:45.011Z,99.90
2024-02-02T03:50:12.534Z,99.90
2024-02-02T03:52:40.062Z,99.90
2024-02-02T03:55:08.047Z,99.90
2024-02-02T03:57:35.622Z,99.90
2024-02-02T04:00:05.833Z,99.90
2024-02-02T04:02:33.351Z,99.90
2024-02-02T04:05:00.709Z,99.90
2024-02-02T04:07:28.189Z,99.90
2024-02-02T04:09:55.703Z,99.90
2024-02-02T04:12:23.193Z,99.90
2024-02-02T04:14:50.546Z,99.90
2024-02-02T04:17:18.008Z,99.90
2024-02-02T04:19:45.776Z,99.90
2024-02-02T04:22:13.153Z,99.90
2024-02-02T04:24:40.637Z,99.90
2024-02-02T04:27:08.057Z,99.90
2024-02-02T04:29:35.560Z,99.90
2024-02-02T04:32:03.220Z,99.90
2024-02-02T04:34:33.579Z,99.90
2024-02-02T04:37:01.102Z,99.90
2024-02-02T04:39:28.624Z,99.90
2024-02-02T04:41:56.062Z,99.90
2024-02-02T04:44:23.723Z,99.90
2024-02-02T04:46:51.155Z,99.90
2024-02-02T04:49:18.640Z,99.90
2024-02-02T04:51:46.056Z,99.90
2024-02-02T04:54:13.567Z,99.90
2024-02-02T04:56:40.948Z,99.90
2024-02-02T04:59:08.325Z,99.90
2024-02-02T05:01:35.761Z,99.90
2024-02-02T05:04:03.157Z,99.90
2024-02-02T05:06:30.770Z,99.90
2024-02-02T05:08:58.316Z,99.90
2024-02-02T05:11:25.996Z,99.90
2024-02-02T05:13:53.299Z,99.90
2024-02-02T05:16:20.770Z,99.90
2024-02-02T05:18:48.252Z,99.90
2024-02-02T05:21:15.728Z,99.90
2024-02-02T05:23:48.969Z,99.90
2024-02-02T05:26:18.333Z,99.90
2024-02-02T05:28:45.739Z,99.90
2024-02-02T05:31:13.331Z,99.90
2024-02-02T05:33:41.693Z,99.90
2024-02-02T05:36:10.130Z,99.90
2024-02-02T05:38:39.180Z,99.90
2024-02-02T05:41:06.591Z,99.90
2024-02-02T05:43:33.917Z,99.90
2024-02-02T05:46:01.430Z,99.90
2024-02-02T05:48:29.057Z,99.90
2024-02-02T05:50:56.665Z,99.90
2024-02-02T05:53:24.110Z,99.90
2024-02-02T05:55:51.544Z,99.90
2024-02-02T05:58:18.912Z,99.90
2024-02-02T06:00:46.443Z,99.90
2024-02-02T06:03:13.884Z,99.90
2024-02-02T06:05:41.596Z,99.90
2024-02-02T06:08:09.127Z,99.90
2024-02-02T06:10:36.452Z,99.90
2024-02-02T06:13:04.160Z,99.90
2024-02-02T06:15:31.776Z,99.90
2024-02-02T06:17:59.382Z,99.90
2024-02-02T06:20:26.985Z,99.90
2024-02-02T06:22:54.388Z,99.90
2024-02-02T06:25:21.768Z,99.90
2024-02-02T06:27:49.154Z,99.90
2024-02-02T06:30:17.418Z,99.90
2024-02-02T06:32:50.085Z,99.90
2024-02-02T06:35:17.628Z,99.90
2024-02-02T06:37:45.121Z,99.90
2024-02-02T06:40:13.062Z,99.90
2024-02-02T06:42:40.530Z,99.90
2024-02-02T06:45:08.624Z,99.90
2024-02-02T06:47:38.376Z,99.90
2024-02-02T06:50:09.761Z,99.90
2024-02-02T06:52:37.487Z,99.90
2024-02-02T06:55:05.236Z,99.90
2024-02-02T06:57:35.677Z,99.90
2024-02-02T07:00:03.779Z,99.90
2024-02-02T07:02:32.037Z,99.90
2024-02-02T07:04:59.660Z,99.90
2024-02-02T07:07:27.256Z,99.90
2024-02-02T07:09:58.518Z,99.90
2024-02-02T07:13:00.766Z,99.90
2024-02-02T07:15:32.106Z,99.90
2024-02-02T07:18:00.131Z,99.90
2024-02-02T07:20:28.952Z,99.90
2024-02-02T07:22:58.026Z,99.90
2024-02-02T07:25:26.550Z,99.90
2024-02-02T07:28:24.122Z,99.90
2024-02-02T07:30:54.366Z,99.90
2024-02-02T07:33:33.421Z,99.90
2024-02-02T07:36:01.901Z,99.90
2024-02-02T07:38:50.007Z,99.90
2024-02-02T07:41:19.753Z,99.90
2024-02-02T07:43:48.847Z,99.90
2024-02-02T07:46:17.136Z,99.90
2024-02-02T07:48:47.933Z,99.90
2024-02-02T07:51:17.652Z,99.90
2024-02-02T07:53:46.362Z,99.90
2024-02-02T07:56:14.760Z,99.90
2024-02-02T07:58:42.545Z,99.90
2024-02-02T08:01:10.826Z,99.90
2024-02-02T08:03:38.987Z,99.90
2024-02-02T08:06:07.410Z,99.90
2024-02-02T08:08:36.953Z,99.90
2024-02-02T08:11:04.412Z,99.90
2024-02-02T08:13:32.609Z,99.90
2024-02-02T08:16:00.439Z,99.90
2024-02-02T08:18:29.264Z,99.90
2024-02-02T08:20:57.190Z,99.90
2024-02-02T08:23:26.584Z,99.90
2024-02-02T08:25:54.102Z,99.90
2024-02-02T08:28:21.618Z,99.90
2024-02-02T08:30:49.151Z,99.90
2024-02-02T08:33:16.774Z,99.90
2024-02-02T08:35:45.032Z,99.90
2024-02-02T08:38:13.593Z,99.90
2024-02-02T08:40:45.170Z,99.90
2024-02-02T08:43:24.033Z,99.90
2024-02-02T08:46:07.450Z,99.90
2024-02-02T08:48:46.568Z,99.90
2024-02-02T08:51:23.946Z,99.90
2024-02-02T08:54:00.678Z,99.90
2024-02-02T08:56:28.297Z,99.90
2024-02-02T08:58:56.392Z,99.90
2024-02-02T09:01:26.848Z,99.90
2024-02-02T09:03:54.870Z,99.90
2024-02-02T09:06:31.070Z,99.90
2024-02-02T09:08:59.119Z,99.90
2024-02-02T09:11:26.669Z,99.90
2024-02-02T09:14:08.907Z,99.90
2024-02-02T09:16:43.355Z,99.90
2024-02-02T09:19:28.447Z,99.90
2024-02-02T09:22:01.768Z,99.90
2024-02-02T09:24:34.928Z,99.90
2024-02-02T09:27:02.540Z,99.90
2024-02-02T09:29:31.077Z,99.90
2024-02-02T09:31:58.516Z,99.90
2024-02-02T09:34:26.488Z,99.90
2024-02-02T09:36:54.683Z,99.90
2024-02-02T09:39:34.330Z,99.90
2024-02-02T09:42:10.936Z,99.90
2024-02-02T09:44:53.597Z,99.90
2024-02-02T09:47:53.936Z,99.90
2024-02-02T09:50:30.093Z,99.90
2024-02-02T09:53:34.058Z,99.90
2024-02-02T09:56:22.916Z,99.90
2024-02-02T09:59:08.367Z,99.90
2024-02-02T10:01:44.572Z,99.90
2024-02-02T10:04:40.488Z,99.90
2024-02-02T10:07:30.924Z,99.90
2024-02-02T10:10:19.729Z,99.90
2024-02-02T10:13:18.230Z,99.90
2024-02-02T10:15:51.209Z,99.90
2024-02-02T10:18:30.709Z,99.90
2024-02-02T10:21:21.133Z,99.90
2024-02-02T10:24:11.973Z,99.90
2024-02-02T10:27:21.524Z,99.90
2024-02-02T10:29:48.910Z,99.90
2024-02-02T10:32:45.297Z,99.90
2024-02-02T10:35:34.042Z,99.90
2024-02-02T10:38:26.483Z,99.90
2024-02-02T10:41:25.059Z,99.90
2024-02-02T10:43:59.435Z,99.90
2024-02-02T10:46:47.052Z,99.90
2024-02-02T10:49:25.643Z,99.90
2024-02-02T10:52:13.882Z,99.90
2024-02-02T10:55:14.651Z,99.90
2024-02-02T10:58:00.487Z,99.90
2024-02-02T11:00:33.222Z,99.90
2024-02-02T11:03:21.188Z,99.90
2024-02-02T11:06:10.882Z,99.60
2024-02-02T11:08:49.724Z,97.80
2024-02-02T11:11:26.757Z,95.80
2024-02-02T11:14:27.484Z,95.30
2024-02-02T11:17:19.550Z,96.00
2024-02-02T11:20:16.374Z,96.00
2024-02-02T11:22:55.613Z,96.10
2024-02-02T11:25:47.424Z,95.40
2024-02-02T11:28:22.476Z,94.60
2024-02-02T11:31:17.116Z,95.10
2024-02-02T11:33:53.692Z,96.00
2024-02-02T11:36:45.533Z,94.90
2024-02-02T11:39:42.319Z,95.40
2024-02-02T11:42:12.645Z,94.00
2024-02-02T11:44:43.712Z,94.60
2024-02-02T11:47:11.565Z,94.30
2024-02-02T11:49:46.072Z,92.80
2024-02-02T11:52:26.769Z,92.40
2024-02-02T11:55:02.515Z,92.70
2024-02-02T11:57:33.974Z,92.40
2024-02-02T12:00:06.962Z,92.30
2024-02-02T12:03:03.707Z,90.70
2024-02-02T12:05:49.822Z,91.00
2024-02-02T12:08:46.394Z,90.70
2024-02-02T12:11:15.947Z,88.10
2024-02-02T12:13:47.391Z,85.00
2024-02-02T12:16:16.051Z,75.70
2024-02-02T12:18:44.120Z,69.50
2024-02-02T12:21:16.886Z,67.30
2024-02-02T12:23:48.017Z,66.60
2024-02-02T12:26:16.769Z,68.20
2024-02-02T12:28:44.258Z,69.20
2024-02-02T12:31:11.598Z,67.00
2024-02-02T12:33:39.204Z,64.20
2024-02-02T12:36:10.113Z,62.30
2024-02-02T12:38:39.905Z,67.00
2024-02-02T12:41:10.049Z,62.40
2024-02-02T12:43:37.499Z,58.00
2024-02-02T12:46:04.988Z,56.50
2024-02-02T12:48:34.959Z,47.60
2024-02-02T12:51:03.032Z,37.10
2024-02-02T12:53:31.959Z,33.60
2024-02-02T12:56:00.135Z,29.20
2024-02-02T12:58:29.926Z,26.50
2024-02-02T13:00:57.552Z,27.30
2024-02-02T13:03:37.710Z,25.90
2024-02-02T13:06:12.188Z,25.10
2024-02-02T13:08:42.093Z,23.50
2024-02-02T13:11:26.460Z,23.00
2024-02-02T13:14:06.565Z,22.60
2024-02-02T13:16:34.942Z,22.50
2024-02-02T13:19:08.757Z,22.60
2024-02-02T13:21:40.808Z,21.30
2024-02-02T13:24:20.314Z,21.90
2024-02-02T13:26:52.372Z,25.90
2024-02-02T13:29:26.830Z,26.60
2024-02-02T13:31:54.204Z,27.10
2024-02-02T13:34:21.795Z,26.70
2024-02-02T13:36:49.665Z,26.50
2024-02-02T13:39:22.787Z,25.70
2024-02-02T13:41:50.818Z,24.90
2024-02-02T13:44:24.288Z,25.00
2024-02-02T13:46:52.394Z,25.70
2024-02-02T13:49:31.050Z,22.70
2024-02-02T13:52:07.083Z,25.10
2024-02-02T13:54:35.388Z,27.00
2024-02-02T13:57:02.961Z,30.60
2024-02-02T13:59:30.873Z,30.90
2024-02-02T14:02:08.104Z,31.90
2024-02-02T14:04:35.713Z,32.10
2024-02-02T14:07:14.411Z,32.40
2024-02-02T14:09:42.884Z,31.10
2024-02-02T14:12:10.930Z,33.20
2024-02-02T14:14:38.495Z,32.70
2024-02-02T14:17:06.935Z,31.20
2024-02-02T14:19:34.872Z,33.70
2024-02-02T14:22:10.413Z,36.00
2024-02-02T14:24:52.305Z,36.70
2024-02-02T14:27:20.010Z,37.10
2024-02-02T14:29:48.833Z,33.10
2024-02-02T14:32:17.384Z,30.90
2024-02-02T14:34:44.896Z,27.60
2024-02-02T14:37:15.763Z,25.00
2024-02-02T14:39:43.718Z,27.10
2024-02-02T14:42:11.292Z,28.50
2024-02-02T14:44:38.800Z,31.60
2024-02-02T14:47:08.285Z,33.80
2024-02-02T14:49:35.981Z,39.30
2024-02-02T14:52:03.588Z,44.00
2024-02-02T14:54:31.984Z,46.40
2024-02-02T14:57:00.140Z,49.30
2024-02-02T14:59:31.986Z,51.80
2024-02-02T15:01:59.525Z,55.80
2024-02-02T15:04:27.018Z,58.30
2024-02-02T15:06:54.802Z,61.60
2024-02-02T15:09:22.632Z,65.90
2024-02-02T15:11:51.434Z,68.40
2024-02-02T15:14:19.003Z,71.20
2024-02-02T15:16:46.569Z,72.00
2024-02-02T15:19:14.199Z,73.10
2024-02-02T15:21:41.987Z,74.90
2024-02-02T15:24:09.500Z,78.50
2024-02-02T15:26:38.331Z,81.50
2024-02-02T15:29:05.923Z,83.50
2024-02-02T15:31:34.038Z,86.20
2024-02-02T15:34:06.198Z,88.10
2024-02-02T15:36:36.225Z,86.90
2024-02-02T15:39:18.741Z,87.00
2024-02-02T15:41:54.257Z,87.60
2024-02-02T15:44:21.817Z,89.00
2024-02-02T15:46:49.257Z,90.30
2024-02-02T15:49:16.903Z,91.00
2024-02-02T15:51:44.552Z,91.50
2024-02-02T15:54:12.010Z,92.40
2024-02-02T15:56:39.786Z,92.90
2024-02-02T15:59:07.983Z,94.40
2024-02-02T16:01:35.516Z,95.40
2024-02-02T16:04:03.500Z,96.60
2024-02-02T16:06:31.201Z,98.10
2024-02-02T16:08:58.701Z,99.40
2024-02-02T16:11:26.193Z,99.90
2024-02-02T16:13:53.954Z,99.90
2024-02-02T16:16:21.447Z,99.90
2024-02-02T16:18:49.020Z,99.90
2024-02-02T16:21:16.579Z,99.90
2024-02-02T16:23:44.121Z,99.90
2024-02-02T16:26:11.696Z,99.90
2024-02-02T16:28:39.053Z,99.90
2024-02-02T16:31:06.607Z,99.90
2024-02-02T16:33:34.120Z,99.90
2024-02-02T16:36:01.627Z,99.90
2024-02-02T16:38:29.207Z,99.90
2024-02-02T16:40:56.564Z,99.90
2024-02-02T16:43:23.876Z,99.90
2024-02-02T16:45:51.623Z,99.90
2024-02-02T16:48:19.442Z,99.90
2024-02-02T16:50:46.990Z,99.90
2024-02-02T16:53:14.382Z,99.90
2024-02-02T16:55:41.854Z,99.90
2024-02-02T16:58:09.457Z,99.90
2024-02-02T17:00:37.554Z,99.90
2024-02-02T17:03:05.218Z,99.90
2024-02-02T17:05:32.674Z,99.90
2024-02-02T17:08:00.229Z,99.90
2024-02-02T17:10:27.665Z,99.90
2024-02-02T17:12:55.121Z,99.90
2024-02-02T17:15:22.775Z,99.90
2024-02-02T17:17:50.510Z,99.90
2024-02-02T17:20:19.160Z,99.90
2024-02-02T17:22:47.198Z,99.90
2024-02-02T17:25:14.604Z,99.90
2024-02-02T17:27:42.492Z,99.90
2024-02-02T17:30:14.197Z,99.90
2024-02-02T17:32:41.722Z,99.90
2024-02-02T17:35:10.199Z,99.90
2024-02-02T17:37:38.656Z,99.90
2024-02-02T17:40:08.581Z,99.90
2024-02-02T17:42:38.425Z,99.90
2024-02-02T17:45:06.382Z,99.90
2024-02-02T17:47:33.740Z,99.90
2024-02-02T17:50:03.583Z,99.90
2024-02-02T17:52:31.930Z,99.90
2024-02-02T17:54:59.845Z,99.90
2024-02-02T17:57:31.996Z,99.90
2024-02-02T17:59:59.928Z,99.90
2024-02-02T18:02:27.444Z,99.90
2024-02-02T18:04:55.038Z,99.90
2024-02-02T18:07:29.983Z,99.90
2024-02-02T18:10:01.250Z,99.90
2024-02-02T18:12:30.475Z,99.90
2024-02-02T18:14:57.959Z,99.90
2024-02-02T18:17:25.415Z,99.90
2024-02-02T18:19:52.876Z,99.90
2024-02-02T18:22:20.334Z,99.90
2024-02-02T18:24:48.541Z,99.90
2024-02-02T18:27:16.160Z,99.90
2024-02-02T18:29:43.870Z,99.90
2024-02-02T18:32:12.136Z,99.90
2024-02-02T18:34:39.476Z,99.90
2024-02-02T18:37:07.008Z,99.90
2024-02-02T18:39:34.444Z,99.90
2024-02-02T18:42:05.404Z,99.90
2024-02-02T18:44:33.001Z,99.90
2024-02-02T18:47:00.366Z,99.90
2024-02-02T18:49:27.939Z,99.90
2024-02-02T18:51:55.412Z,99.90
2024-02-02T18:54:23.083Z,99.90
2024-02-02T18:56:51.045Z,99.90
2024-02-02T18:59:18.564Z,99.90
2024-02-02T19:01:46.025Z,99.90
2024-02-02T19:04:13.738Z,99.90
2024-02-02T19:06:41.384Z,99.90
2024-02-02T19:09:11.800Z,99.90
2024-02-02T19:11:39.261Z,99.90
2024-02-02T19:14:12.716Z,99.90
2024-02-02T19:16:41.458Z,99.90
2024-02-02T19:19:09.283Z,99.90
2024-02-02T19:21:37.052Z,99.90
2024-02-02T19:24:05.630Z,99.90
2024-02-02T19:26:33.056Z,99.90
2024-02-02T19:29:00.548Z,99.90
2024-02-02T19:31:28.947Z,99.90
2024-02-02T19:33:56.784Z,99.90
2024-02-02T19:36:29.033Z,99.90
2024-02-02T19:38:58.645Z,99.90
2024-02-02T19:41:33.370Z,99.90
2024-02-02T19:44:00.996Z,99.90
2024-02-02T19:46:30.421Z,99.90
2024-02-02T19:48:59.624Z,99.90
2024-02-02T19:51:28.724Z,99.90
2024-02-02T19:53:56.633Z,99.90
2024-02-02T19:56:24.633Z,99.90
2024-02-02T19:58:52.345Z,99.90
2024-02-02T20:01:22.194Z,99.90
2024-02-02T20:03:50.713Z,99.90
2024-02-02T20:06:19.537Z,99.90
2024-02-02T20:08:48.712Z,99.90
2024-02-02T20:11:26.215Z,99.90
2024-02-02T20:13:53.719Z,99.90
2024-02-02T20:16:21.768Z,99.90
2024-02-02T20:18:50.503Z,99.90
2024-02-02T20:21:20.317Z,99.90
2024-02-02T20:23:50.343Z,99.90
2024-02-02T20:26:19.789Z,99.90
2024-02-02T20:28:49.096Z,99.90
2024-02-02T20:31:17.031Z,99.90
2024-02-02T20:33:44.781Z,99.90
2024-02-02T20:36:12.482Z,99.90
2024-02-02T20:38:42.056Z,99.90
2024-02-02T20:41:09.564Z,99.90
2024-02-02T20:43:37.035Z,99.90
2024-02-02T20:46:04.627Z,99.90
2024-02-02T20:48:32.004Z,99.90
2024-02-02T20:50:59.436Z,99.90
2024-02-02T20:53:26.866Z,99.90
2024-02-02T20:55:54.390Z,99.90
2024-02-02T20:58:21.832Z,99.90
2024-02-02T21:00:49.260Z,99.90
2024-02-02T21:03:19.261Z,99.90
2024-02-02T21:05:47.076Z,99.90
2024-02-02T21:08:14.569Z,99.90
2024-02-02T21:10:41.877Z,99.90
2024-02-02T21:13:09.252Z,99.90
2024-02-02T21:15:37.675Z,99.90
2024-02-02T21:18:11.300Z,99.90
2024-02-02T21:20:44.346Z,99.90
2024-02-02T21:23:12.851Z,99.90
2024-02-02T21:25:44.200Z,99.90
2024-02-02T21:28:11.757Z,99.90
2024-02-02T21:30:39.635Z,99.90
2024-02-02T21:33:07.239Z,99.90
2024-02-02T21:35:34.600Z,99.90
2024-02-02T21:38:02.005Z,99.90
2024-02-02T21:40:29.334Z,99.90
2024-02-02T21:42:56.742Z,99.90
2024-02-02T21:45:24.270Z,99.90
2024-02-02T21:47:52.002Z,99.90
2024-02-02T21:50:19.708Z,99.90
2024-02-02T21:52:47.258Z,99.90
2024-02-02T21:55:14.620Z,99.90
2024-02-02T21:57:41.965Z,99.90
2024-02-02T22:00:12.656Z,99.90
2024-02-02T22:02:39.989Z,99.90
2024-02-02T22:05:07.547Z,99.90
2024-02-02T22:07:37.736Z,99.90
2024-02-02T22:10:05.656Z,99.90
2024-02-02T22:12:33.043Z,99.90
2024-02-02T22:15:00.437Z,99.90
2024-02-02T22:17:28.739Z,99.90
2024-02-02T22:19:56.185Z,99.90
2024-02-02T22:22:23.695Z,99.90
2024-02-02T22:24:51.194Z,99.90
2024-02-02T22:27:22.281Z,99.90
2024-02-02T22:29:51.167Z,99.90
2024-02-02T22:32:21.418Z,99.90
2024-02-02T22:34:49.680Z,99.90
2024-02-02T22:37:17.252Z,99.90
2024-02-02T22:39:44.872Z,99.90
2024-02-02T22:42:12.363Z,99.90
2024-02-02T22:44:39.719Z,99.90
2024-02-02T22:47:07.084Z,99.90
2024-02-02T22:49:35.249Z,99.90
2024-02-02T22:52:02.907Z,99.90
2024-02-02T22:54:30.338Z,99.90
2024-02-02T22:56:57.742Z,99.90
2024-02-02T22:59:25.157Z,99.90
2024-02-02T23:01:52.588Z,99.90
2024-02-02T23:04:20.139Z,99.90
2024-02-02T23:06:47.733Z,99.90
2024-02-02T23:09:15.213Z,99.90
2024-02-02T23:11:43.085Z,99.90
2024-02-02T23:14:10.757Z,99.90
2024-02-02T23:16:38.230Z,99.90
2024-02-02T23:19:05.922Z,99.90
2024-02-02T23:21:33.828Z,99.90
2024-02-02T23:24:01.286Z,99.90
2024-02-02T23:26:28.616Z,99.90
2024-02-02T23:28:55.886Z,99.90
2024-02-02T23:31:23.517Z,99.90
2024-02-02T23:33:50.943Z,99.90
2024-02-02T23:36:19.112Z,99.90
2024-02-02T23:38:46.585Z,99.90
2024-02-02T23:41:17.890Z,99.90
2024-02-02T23:43:46.044Z,99.90
2024-02-02T23:46:13.368Z,99.90
2024-02-02T23:48:40.983Z,99.90
2024-02-02T23:51:09.499Z,99.90
2024-02-02T23:53:36.856Z,99.90
2024-02-02T23:56:04.403Z,99.90
2024-02-02T23:58:31.767Z,99.90
